Time;durP1;ratioP1;P1;durP2;ratioP2;P2;SDS_P1;SDS_P2;PMS_P1;PMS_P2;Temp;Humidity;BMP_temperature;BMP_pressure;BME280_temperature;BME280_humidity;BME280_pressure;Samples;Min_cycle;Max_cycle;Signal;HPM_P1;HPM_P2
2023/05/19 00:01:49;;;;;;;3.03;2.80;;;23.50;60.50;;;;;;5070632;28;20461;-67
2023/05/19 00:04:18;;;;;;;3.30;3.00;;;23.40;60.40;;;;;;5069343;28;20455;-67
2023/05/19 00:06:49;;;;;;;2.93;2.73;;;23.40;60.50;;;;;;5069353;28;20479;-67
2023/05/19 00:09:18;;;;;;;2.47;2.27;;;23.40;60.40;;;;;;5053788;28;20784;-67
2023/05/19 00:11:47;;;;;;;2.90;2.60;;;23.40;60.40;;;;;;5061461;28;21019;-67
2023/05/19 00:14:15;;;;;;;3.03;2.70;;;23.40;60.40;;;;;;5070496;28;20432;-67
2023/05/19 00:16:44;;;;;;;2.30;2.20;;;23.40;60.40;;;;;;5070557;28;20481;-66
2023/05/19 00:19:15;;;;;;;2.90;2.50;;;23.40;60.40;;;;;;5056876;28;20454;-67
2023/05/19 00:21:44;;;;;;;3.27;2.97;;;23.40;60.30;;;;;;5079210;28;20507;-66
2023/05/19 00:24:12;;;;;;;3.43;3.13;;;23.40;60.30;;;;;;5091433;28;20445;-66
2023/05/19 00:26:40;;;;;;;3.63;2.60;;;23.40;60.30;;;;;;5044051;28;20494;-67
2023/05/19 00:29:08;;;;;;;2.70;2.27;;;23.40;60.30;;;;;;5066016;28;20496;-67
2023/05/19 00:31:37;;;;;;;3.23;2.73;;;23.40;60.20;;;;;;5061783;28;20487;-67
2023/05/19 00:34:05;;;;;;;2.80;2.60;;;23.40;60.20;;;;;;5041528;28;20503;-67
2023/05/19 00:36:35;;;;;;;2.57;2.37;;;23.40;60.20;;;;;;5070745;28;20906;-67
2023/05/19 00:39:03;;;;;;;2.60;2.40;;;23.40;60.20;;;;;;5071300;28;20425;-66
2023/05/19 00:41:31;;;;;;;3.23;2.93;;;23.40;60.20;;;;;;5069389;28;20523;-67
2023/05/19 00:44:00;;;;;;;2.70;2.50;;;23.40;60.20;;;;;;5059925;28;20531;-66
2023/05/19 00:46:29;;;;;;;2.47;2.27;;;23.40;60.20;;;;;;5067369;28;20445;-66
2023/05/19 00:48:57;;;;;;;2.47;2.27;;;23.40;60.10;;;;;;5071409;28;20438;-67
2023/05/19 00:51:28;;;;;;;3.10;2.80;;;23.30;60.00;;;;;;5056218;28;20450;-67
2023/05/19 00:53:58;;;;;;;2.57;2.37;;;23.30;60.00;;;;;;5074711;28;20443;-66
2023/05/19 00:56:27;;;;;;;2.63;2.30;;;23.30;60.00;;;;;;5072377;28;20989;-66
2023/05/19 00:58:55;;;;;;;2.67;1.97;;;23.30;60.00;;;;;;5073271;28;20829;-66
2023/05/19 01:01:25;;;;;;;3.03;2.83;;;23.30;60.00;;;;;;5073777;28;20816;-66
2023/05/19 01:03:55;;;;;;;2.40;2.20;;;23.30;59.90;;;;;;5074020;28;20518;-67
2023/05/19 01:06:24;;;;;;;3.17;2.40;;;23.30;59.90;;;;;;5077733;28;20459;-66
2023/05/19 01:08:54;;;;;;;2.63;2.53;;;23.30;59.90;;;;;;5094476;28;20434;-67
2023/05/19 01:11:24;;;;;;;3.13;2.93;;;23.30;60.00;;;;;;5080183;28;20935;-66
2023/05/19 01:13:52;;;;;;;2.60;2.40;;;23.30;60.00;;;;;;5075820;28;20469;-67
2023/05/19 01:16:29;;;;;;;2.80;2.60;;;23.30;60.00;;;;;;5066958;28;20491;-66
2023/05/19 01:19:02;;;;;;;2.27;2.10;;;23.30;59.90;;;;;;5065171;28;20493;-66
2023/05/19 01:22:12;;;;;;;2.70;2.47;;;23.30;59.90;;;;;;5083065;28;20545;-67
2023/05/19 01:25:28;;;;;;;2.70;2.50;;;23.30;59.90;;;;;;5050337;28;20466;-66
2023/05/19 01:28:25;;;;;;;2.90;2.70;;;23.30;59.80;;;;;;5031542;28;20505;-67
2023/05/19 01:30:56;;;;;;;2.50;2.40;;;23.30;59.90;;;;;;5038738;28;20939;-67
2023/05/19 01:33:26;;;;;;;2.33;2.23;;;23.30;59.90;;;;;;5052911;28;21337;-66
2023/05/19 01:35:56;;;;;;;2.70;2.50;;;23.30;59.90;;;;;;5053092;28;20530;-66
2023/05/19 01:38:25;;;;;;;2.47;2.27;;;23.30;59.90;;;;;;5044404;28;20454;-67
2023/05/19 01:40:55;;;;;;;2.30;2.10;;;23.30;59.90;;;;;;5053504;28;20463;-66
2023/05/19 01:43:26;;;;;;;2.50;2.40;;;23.30;59.70;;;;;;5053352;28;20439;-67
2023/05/19 01:45:57;;;;;;;2.40;1.80;;;23.20;59.70;;;;;;5053049;28;20452;-66
2023/05/19 01:48:27;;;;;;;3.80;2.80;;;23.30;59.70;;;;;;5053404;28;20824;-67
2023/05/19 01:50:57;;;;;;;3.30;3.00;;;23.30;59.80;;;;;;5032009;28;20470;-66
2023/05/19 01:53:26;;;;;;;2.47;2.27;;;23.30;59.80;;;;;;5052900;28;20439;-67
2023/05/19 01:55:56;;;;;;;2.73;2.50;;;23.30;59.90;;;;;;5035545;28;20533;-67
2023/05/19 01:58:34;;;;;;;3.20;2.93;;;23.30;59.80;;;;;;5068105;28;20438;-66
2023/05/19 02:01:15;;;;;;;2.67;2.43;;;23.30;59.90;;;;;;5038558;28;20471;-66
2023/05/19 02:04:01;;;;;;;2.67;2.47;;;23.20;59.80;;;;;;5037829;28;20454;-67
2023/05/19 02:06:37;;;;;;;3.20;2.90;;;23.20;59.70;;;;;;5035425;28;20462;-66
2023/05/19 02:09:15;;;;;;;2.40;2.20;;;23.20;59.70;;;;;;5064146;28;20503;-67
2023/05/19 02:11:51;;;;;;;2.30;2.20;;;23.20;59.80;;;;;;5044087;28;20820;-66
2023/05/19 02:14:24;;;;;;;2.50;2.30;;;23.20;59.80;;;;;;5035158;28;20452;-67
2023/05/19 02:16:57;;;;;;;2.90;2.40;;;23.20;59.70;;;;;;5052263;28;20464;-66
2023/05/19 02:19:26;;;;;;;2.97;2.70;;;23.20;59.60;;;;;;5059619;28;20460;-67
2023/05/19 02:21:56;;;;;;;2.17;2.03;;;23.20;59.60;;;;;;5034287;28;20468;-67
2023/05/19 02:24:25;;;;;;;2.50;2.30;;;23.20;59.50;;;;;;5052344;28;20450;-67
2023/05/19 02:26:54;;;;;;;2.43;2.33;;;23.20;59.60;;;;;;5062844;28;20566;-66
2023/05/19 02:29:22;;;;;;;3.03;2.53;;;23.20;59.70;;;;;;5072710;28;20424;-67
2023/05/19 02:31:50;;;;;;;2.37;2.27;;;23.20;59.60;;;;;;5059161;28;20498;-67
2023/05/19 02:34:20;;;;;;;2.60;2.37;;;23.20;59.60;;;;;;5054379;28;20458;-66
2023/05/19 02:36:49;;;;;;;2.83;2.50;;;23.20;59.60;;;;;;5068597;28;20846;-66
2023/05/19 02:39:18;;;;;;;2.50;2.30;;;23.20;59.60;;;;;;5072474;28;20437;-66
2023/05/19 02:41:47;;;;;;;3.27;2.67;;;23.20;59.60;;;;;;5071980;28;20468;-66
2023/05/19 02:44:15;;;;;;;2.67;2.47;;;23.20;59.50;;;;;;5072153;28;20461;-67
2023/05/19 02:46:43;;;;;;;2.33;2.20;;;23.20;59.50;;;;;;5057375;28;20446;-66
2023/05/19 02:49:12;;;;;;;2.93;2.73;;;23.20;59.50;;;;;;5070591;28;20451;-66
2023/05/19 02:51:41;;;;;;;2.63;2.43;;;23.20;59.50;;;;;;5053626;28;20486;-67
2023/05/19 02:54:10;;;;;;;2.80;2.60;;;23.20;59.60;;;;;;5060333;28;20455;-66
2023/05/19 02:56:38;;;;;;;2.77;2.57;;;23.20;59.60;;;;;;5074088;28;20848;-66
2023/05/19 02:59:06;;;;;;;2.00;1.90;;;23.10;59.60;;;;;;5069246;28;20451;-67
2023/05/19 03:01:36;;;;;;;2.73;2.53;;;23.20;59.40;;;;;;5071654;28;20504;-66
2023/05/19 03:04:05;;;;;;;2.50;2.30;;;23.10;59.40;;;;;;5054233;28;20494;-66
2023/05/19 03:06:33;;;;;;;2.03;1.70;;;23.10;59.50;;;;;;5054041;28;20486;-66
2023/05/19 03:09:03;;;;;;;2.63;2.43;;;23.10;59.50;;;;;;5076797;28;20457;-66
2023/05/19 03:11:31;;;;;;;3.67;2.30;;;23.10;59.40;;;;;;5063720;28;20513;-67
2023/05/19 03:14:00;;;;;;;3.00;2.70;;;23.10;59.40;;;;;;5071654;28;20435;-66
2023/05/19 03:16:28;;;;;;;2.50;2.30;;;23.10;59.30;;;;;;5080859;28;20471;-67
2023/05/19 03:18:56;;;;;;;2.40;2.20;;;23.10;59.30;;;;;;5092454;28;20470;-67
2023/05/19 03:21:25;;;;;;;2.90;2.30;;;23.10;59.20;;;;;;5050429;28;20555;-66
2023/05/19 03:23:53;;;;;;;2.83;2.20;;;23.10;59.20;;;;;;5075217;28;20449;-66
2023/05/19 03:26:23;;;;;;;3.23;2.57;;;23.10;59.20;;;;;;5056073;28;20912;-66
2023/05/19 03:28:51;;;;;;;2.70;2.07;;;23.10;59.20;;;;;;5070446;28;20438;-66
2023/05/19 03:31:20;;;;;;;2.47;2.27;;;23.10;59.20;;;;;;5053163;28;20954;-66
2023/05/19 03:33:48;;;;;;;2.40;2.20;;;23.10;59.20;;;;;;5074013;28;20462;-66
2023/05/19 03:36:16;;;;;;;4.93;2.47;;;23.10;59.20;;;;;;5063656;28;20466;-67
2023/05/19 03:38:44;;;;;;;2.93;2.33;;;23.10;59.20;;;;;;5053248;28;20453;-66
2023/05/19 03:41:13;;;;;;;3.27;2.23;;;23.10;59.20;;;;;;5065508;28;20443;-66
2023/05/19 03:43:42;;;;;;;2.40;2.00;;;23.10;59.20;;;;;;5051910;28;20455;-67
2023/05/19 03:46:10;;;;;;;3.33;2.60;;;23.10;59.30;;;;;;5070950;28;20832;-68
2023/05/19 03:48:40;;;;;;;3.00;2.70;;;23.10;59.20;;;;;;5071489;28;20525;-67
2023/05/19 03:51:14;;;;;;;2.30;2.10;;;23.10;59.30;;;;;;5067495;28;20510;-67
2023/05/19 03:53:45;;;;;;;2.20;2.10;;;23.10;59.40;;;;;;5052284;28;20546;-67
2023/05/19 03:56:15;;;;;;;2.40;2.20;;;23.10;59.40;;;;;;5057614;28;20452;-67
2023/05/19 03:58:45;;;;;;;3.40;2.23;;;23.10;59.40;;;;;;5070935;28;20484;-67
2023/05/19 04:01:15;;;;;;;2.47;2.27;;;23.10;59.40;;;;;;5052510;28;20491;-67
2023/05/19 04:03:43;;;;;;;2.23;2.03;;;23.10;59.50;;;;;;5070118;28;20434;-67
2023/05/19 04:06:11;;;;;;;3.17;2.43;;;23.10;59.50;;;;;;5070437;28;20456;-67
2023/05/19 04:08:40;;;;;;;3.10;2.27;;;23.20;59.40;;;;;;5067127;28;20466;-67
2023/05/19 04:11:08;;;;;;;2.07;1.97;;;23.20;59.40;;;;;;5082264;28;20456;-67
2023/05/19 04:13:36;;;;;;;3.20;2.67;;;23.20;59.30;;;;;;5052496;28;20456;-67
2023/05/19 04:16:07;;;;;;;2.60;2.40;;;23.20;59.30;;;;;;5066013;28;20475;-67
2023/05/19 04:18:35;;;;;;;2.97;2.63;;;23.30;59.20;;;;;;5058331;28;20474;-67
2023/05/19 04:21:04;;;;;;;2.33;2.13;;;23.30;59.10;;;;;;5064305;28;20476;-67
2023/05/19 04:23:32;;;;;;;2.27;1.80;;;23.30;59.00;;;;;;5072923;28;20983;-67
2023/05/19 04:26:02;;;;;;;2.53;2.33;;;23.30;59.00;;;;;;5068888;28;20505;-66
2023/05/19 04:28:30;;;;;;;2.10;1.90;;;23.30;58.90;;;;;;5055903;28;20837;-66
2023/05/19 04:30:59;;;;;;;3.43;2.20;;;23.40;58.90;;;;;;5055904;28;20845;-66
2023/05/19 04:33:28;;;;;;;2.20;2.00;;;23.40;58.80;;;;;;5046290;28;20471;-67
2023/05/19 04:35:57;;;;;;;2.40;2.20;;;23.40;58.80;;;;;;5056989;28;20466;-67
2023/05/19 04:38:28;;;;;;;2.77;2.30;;;23.40;58.70;;;;;;5078522;28;20475;-66
2023/05/19 04:41:00;;;;;;;2.53;1.97;;;23.40;58.60;;;;;;5055580;28;20840;-66
2023/05/19 04:43:28;;;;;;;2.57;2.37;;;23.30;58.60;;;;;;5059779;28;20595;-66
2023/05/19 04:45:56;;;;;;;2.20;2.07;;;23.30;58.60;;;;;;5055520;28;20738;-66
2023/05/19 04:48:26;;;;;;;2.90;2.27;;;23.30;58.60;;;;;;5064629;28;20883;-65
2023/05/19 04:50:55;;;;;;;2.20;2.00;;;23.30;58.50;;;;;;5057935;28;20480;-66
2023/05/19 04:53:24;;;;;;;5.13;2.50;;;23.30;58.10;;;;;;5052701;28;20838;-67
2023/05/19 04:55:53;;;;;;;3.60;2.80;;;23.30;57.60;;;;;;5050177;28;20462;-65
2023/05/19 04:58:21;;;;;;;6.60;2.70;;;23.20;57.20;;;;;;5051733;28;20485;-65
2023/05/19 05:00:49;;;;;;;3.30;2.17;;;23.20;57.00;;;;;;5046430;28;20471;-66
2023/05/19 05:03:18;;;;;;;2.63;2.43;;;23.20;57.30;;;;;;5070767;28;20451;-66
2023/05/19 05:05:46;;;;;;;2.90;2.60;;;23.20;57.60;;;;;;5052916;28;20458;-66
2023/05/19 05:08:21;;;;;;;2.50;2.30;;;23.20;57.80;;;;;;5076089;28;20437;-66
2023/05/19 05:10:51;;;;;;;3.90;3.00;;;23.20;58.00;;;;;;5050242;28;20498;-66
2023/05/19 05:13:23;;;;;;;2.50;2.30;;;23.10;58.20;;;;;;5052742;28;20451;-66
2023/05/19 05:15:54;;;;;;;2.53;2.13;;;23.10;58.40;;;;;;5038059;28;20475;-67
2023/05/19 05:18:23;;;;;;;3.70;2.80;;;23.10;58.50;;;;;;5050251;28;20470;-66
2023/05/19 05:20:53;;;;;;;2.90;2.40;;;23.10;58.60;;;;;;5053877;28;20481;-66
2023/05/19 05:23:24;;;;;;;2.30;2.10;;;23.10;58.80;;;;;;5052094;28;20453;-67
2023/05/19 05:25:53;;;;;;;3.07;2.30;;;23.10;58.90;;;;;;5068223;28;20454;-65
2023/05/19 05:28:21;;;;;;;2.73;2.27;;;23.20;59.00;;;;;;5048326;28;20532;-66
2023/05/19 05:30:50;;;;;;;3.60;3.00;;;23.20;59.10;;;;;;5053590;28;20504;-66
2023/05/19 05:33:20;;;;;;;4.00;2.47;;;23.10;59.20;;;;;;5054397;28;20504;-66
2023/05/19 05:35:50;;;;;;;2.80;2.60;;;23.10;59.20;;;;;;5054055;28;20512;-66
2023/05/19 05:38:18;;;;;;;3.83;2.40;;;23.20;59.20;;;;;;5053180;28;20473;-66
2023/05/19 05:40:47;;;;;;;3.83;2.47;;;23.20;59.20;;;;;;5073679;28;20456;-66
2023/05/19 05:43:16;;;;;;;3.83;2.50;;;23.20;59.30;;;;;;5055742;28;20548;-65
2023/05/19 05:45:50;;;;;;;2.97;2.57;;;23.20;59.30;;;;;;5063284;28;20466;-66
2023/05/19 05:48:19;;;;;;;3.67;2.87;;;23.20;59.30;;;;;;5048527;28;20472;-66
2023/05/19 05:50:49;;;;;;;2.63;2.43;;;23.20;59.30;;;;;;5070691;28;20455;-66
2023/05/19 05:53:22;;;;;;;2.50;2.30;;;23.20;59.30;;;;;;5052125;28;21002;-66
2023/05/19 05:55:54;;;;;;;2.70;2.50;;;23.20;59.40;;;;;;5052445;28;20549;-66
2023/05/19 05:58:28;;;;;;;2.47;2.27;;;23.30;59.40;;;;;;5056631;28;20481;-66
2023/05/19 06:00:58;;;;;;;3.03;2.50;;;23.30;59.40;;;;;;5071377;28;20446;-65
2023/05/19 06:03:27;;;;;;;5.10;2.30;;;23.30;59.50;;;;;;5053627;28;20462;-66
2023/05/19 06:05:58;;;;;;;3.63;2.33;;;23.30;59.50;;;;;;5054447;28;20520;-65
2023/05/19 06:08:26;;;;;;;4.07;2.30;;;23.30;59.50;;;;;;5044555;28;20467;-65
2023/05/19 06:10:57;;;;;;;2.70;2.43;;;23.30;59.60;;;;;;5072341;28;20447;-65
2023/05/19 06:13:26;;;;;;;3.47;3.17;;;23.30;59.60;;;;;;5064072;28;20466;-65
2023/05/19 06:15:54;;;;;;;3.00;2.80;;;23.30;59.80;;;;;;5073570;28;20446;-65
2023/05/19 06:18:27;;;;;;;3.07;2.23;;;23.30;59.80;;;;;;5054180;28;20480;-65
2023/05/19 06:20:56;;;;;;;3.10;2.83;;;23.30;59.90;;;;;;5064518;28;20509;-65
2023/05/19 06:23:25;;;;;;;3.13;2.83;;;23.30;59.90;;;;;;5072440;28;20440;-65
2023/05/19 06:25:54;;;;;;;3.03;2.50;;;23.30;59.90;;;;;;5059841;28;20923;-66
2023/05/19 06:28:24;;;;;;;2.80;2.50;;;23.30;60.00;;;;;;5037677;28;20463;-66
2023/05/19 06:30:52;;;;;;;3.90;2.50;;;23.30;60.00;;;;;;5051973;28;20466;-66
2023/05/19 06:33:41;;;;;;;1.93;1.83;;;23.40;60.00;;;;;;5069805;28;20865;-65
2023/05/19 06:36:09;;;;;;;2.90;2.70;;;23.40;60.00;;;;;;5057140;28;20456;-65
2023/05/19 06:38:40;;;;;;;5.00;2.30;;;23.40;60.10;;;;;;5047434;28;20565;-65
2023/05/19 06:41:08;;;;;;;3.03;2.50;;;23.40;60.10;;;;;;5048771;28;20460;-65
2023/05/19 06:43:38;;;;;;;3.40;2.20;;;23.40;60.10;;;;;;5053523;28;20454;-68
2023/05/19 06:46:07;;;;;;;2.77;2.57;;;23.40;60.10;;;;;;5052658;28;20945;-65
2023/05/19 06:48:35;;;;;;;2.97;2.67;;;23.40;60.60;;;;;;5049456;28;20466;-64
2023/05/19 06:51:04;;;;;;;3.30;3.00;;;23.40;60.90;;;;;;5062481;28;20551;-65
2023/05/19 06:53:34;;;;;;;2.30;2.10;;;23.40;61.20;;;;;;5052040;28;20459;-65
2023/05/19 06:56:07;;;;;;;3.07;2.07;;;23.50;61.30;;;;;;5053434;28;20971;-65
2023/05/19 06:58:39;;;;;;;5.20;2.63;;;23.50;61.40;;;;;;5052701;28;20509;-65
2023/05/19 07:01:08;;;;;;;3.87;2.60;;;23.50;61.40;;;;;;5051529;28;21228;-65
2023/05/19 07:03:42;;;;;;;2.50;2.30;;;23.60;61.40;;;;;;5050515;28;20462;-64
2023/05/19 07:06:12;;;;;;;2.70;2.33;;;23.60;61.40;;;;;;5053202;28;20543;-65
2023/05/19 07:08:41;;;;;;;2.43;2.23;;;23.70;61.40;;;;;;5051077;28;20541;-66
2023/05/19 07:11:12;;;;;;;2.77;2.50;;;23.70;61.30;;;;;;5045546;28;20491;-64
2023/05/19 07:13:43;;;;;;;4.93;2.50;;;23.70;61.30;;;;;;5052733;28;20533;-64
2023/05/19 07:16:11;;;;;;;2.50;2.40;;;23.80;61.30;;;;;;5066091;28;20465;-65
2023/05/19 07:18:40;;;;;;;2.90;2.20;;;23.80;61.20;;;;;;5052267;28;20998;-64
2023/05/19 07:21:08;;;;;;;2.43;2.03;;;23.90;61.20;;;;;;5068449;28;20444;-65
2023/05/19 07:23:38;;;;;;;2.20;2.00;;;23.90;61.20;;;;;;5052556;28;20554;-65
2023/05/19 07:26:06;;;;;;;2.57;2.37;;;23.90;61.20;;;;;;5053561;28;20484;-64
2023/05/19 07:28:34;;;;;;;2.30;1.80;;;24.00;61.10;;;;;;5070300;28;20514;-64
2023/05/19 07:31:04;;;;;;;2.43;2.23;;;24.00;61.10;;;;;;5070399;28;20451;-65
2023/05/19 07:33:32;;;;;;;3.40;2.40;;;24.10;61.00;;;;;;5065288;28;20508;-64
2023/05/19 07:36:00;;;;;;;3.10;2.00;;;24.00;61.10;;;;;;5078479;28;20516;-65
2023/05/19 07:38:30;;;;;;;6.20;2.03;;;24.10;61.00;;;;;;5069485;28;20845;-65
2023/05/19 07:40:58;;;;;;;4.67;2.60;;;24.10;61.00;;;;;;5070891;28;20448;-66
2023/05/19 07:43:26;;;;;;;2.60;2.37;;;24.10;61.10;;;;;;5080517;28;20472;-66
2023/05/19 07:45:55;;;;;;;3.07;2.10;;;24.10;61.20;;;;;;5078763;28;20780;-66
2023/05/19 07:48:25;;;;;;;7.03;2.43;;;24.20;61.20;;;;;;5070608;28;20463;-66
2023/05/19 07:50:53;;;;;;;2.23;2.07;;;24.20;61.10;;;;;;5047093;28;20453;-65
2023/05/19 07:53:22;;;;;;;2.57;2.30;;;24.20;61.20;;;;;;5069314;28;20504;-65
2023/05/19 07:55:50;;;;;;;2.50;1.90;;;24.20;61.20;;;;;;5063961;28;20459;-65
2023/05/19 07:58:19;;;;;;;4.17;2.47;;;24.20;61.10;;;;;;5054714;28;20451;-67
2023/05/19 08:00:47;;;;;;;2.73;2.40;;;24.20;60.60;;;;;;5068800;28;21000;-65
2023/05/19 08:03:16;;;;;;;18.27;4.47;;;24.30;60.70;;;;;;5076298;28;20446;-74
2023/05/19 08:05:46;;;;;;;25.70;5.17;;;24.30;61.20;;;;;;5048915;28;20910;-66
2023/05/19 08:08:17;;;;;;;14.13;4.20;;;24.30;60.80;;;;;;5065260;28;20867;-65
2023/05/19 08:10:46;;;;;;;12.50;4.77;;;24.30;61.10;;;;;;5072039;28;20444;-65
2023/05/19 08:13:14;;;;;;;14.00;3.67;;;24.30;61.10;;;;;;5069107;28;20445;-66
2023/05/19 08:15:43;;;;;;;10.20;3.37;;;24.30;61.20;;;;;;5074749;28;21276;-66
2023/05/19 08:18:11;;;;;;;7.83;3.17;;;24.30;61.20;;;;;;5060981;28;20528;-66
2023/05/19 08:20:39;;;;;;;6.70;3.80;;;24.30;61.30;;;;;;5076310;28;20482;-66
2023/05/19 08:23:09;;;;;;;9.73;3.73;;;24.30;61.40;;;;;;5073820;28;20964;-65
2023/05/19 08:25:37;;;;;;;11.00;3.87;;;24.30;61.30;;;;;;5056088;28;20521;-65
2023/05/19 08:28:05;;;;;;;7.20;3.10;;;24.30;61.40;;;;;;5055153;28;20461;-68
2023/05/19 08:30:34;;;;;;;13.57;4.27;;;24.30;61.50;;;;;;5077639;28;20446;-65
2023/05/19 08:33:02;;;;;;;11.20;5.90;;;24.30;61.50;;;;;;5071598;28;20465;-64
2023/05/19 08:35:30;;;;;;;8.47;4.27;;;24.30;61.60;;;;;;5058544;28;20502;-65
2023/05/19 08:37:58;;;;;;;10.77;3.50;;;24.30;61.60;;;;;;5077616;28;20457;-65
2023/05/19 08:40:30;;;;;;;6.27;2.90;;;24.30;61.60;;;;;;5073628;28;20808;-65
2023/05/19 08:42:59;;;;;;;13.10;4.00;;;24.40;61.60;;;;;;5058533;28;20505;-67
2023/05/19 08:45:27;;;;;;;9.83;3.90;;;24.30;61.60;;;;;;5085435;28;20459;-65
2023/05/19 08:47:56;;;;;;;10.50;2.70;;;24.40;61.20;;;;;;5073881;28;20493;-65
2023/05/19 08:50:30;;;;;;;5.80;2.90;;;24.40;61.40;;;;;;5073943;28;20969;-66
2023/05/19 08:53:04;;;;;;;7.93;2.80;;;24.40;61.40;;;;;;5073055;28;20969;-65
2023/05/19 08:55:41;;;;;;;6.53;3.20;;;24.40;61.40;;;;;;5073214;28;20774;-65
2023/05/19 08:58:11;;;;;;;5.00;2.40;;;24.40;61.40;;;;;;5065277;28;20463;-66
2023/05/19 09:00:39;;;;;;;5.97;2.83;;;24.40;61.50;;;;;;5072333;28;20474;-66
2023/05/19 09:03:08;;;;;;;3.47;3.07;;;24.40;61.40;;;;;;5073322;28;20455;-65
2023/05/19 09:05:50;;;;;;;6.70;2.90;;;24.40;61.40;;;;;;5080097;28;20466;-66
2023/05/19 09:08:18;;;;;;;6.37;2.40;;;24.40;61.50;;;;;;5068377;28;20443;-65
2023/05/19 09:10:48;;;;;;;8.37;2.90;;;24.40;61.40;;;;;;5073382;28;20818;-65
2023/05/19 09:13:16;;;;;;;9.47;2.30;;;24.50;61.40;;;;;;5073579;28;20863;-65
2023/05/19 09:15:45;;;;;;;6.80;2.83;;;24.50;61.40;;;;;;5071929;28;20523;-65
2023/05/19 09:18:14;;;;;;;3.30;2.30;;;24.50;61.40;;;;;;5065307;28;20457;-65
2023/05/19 09:20:44;;;;;;;6.10;3.27;;;24.50;61.40;;;;;;5073743;28;20484;-66
2023/05/19 09:23:13;;;;;;;4.10;3.00;;;24.50;61.40;;;;;;5078920;28;20508;-67
2023/05/19 09:25:50;;;;;;;5.87;3.03;;;24.50;61.40;;;;;;5072057;28;20457;-66
2023/05/19 09:28:26;;;;;;;3.67;1.80;;;24.60;61.50;;;;;;5067770;28;20456;-65
2023/05/19 09:31:03;;;;;;;4.03;3.30;;;24.60;61.40;;;;;;5070357;28;20478;-66
2023/05/19 09:33:34;;;;;;;5.20;2.60;;;24.60;61.50;;;;;;5051797;28;20848;-65
2023/05/19 09:36:04;;;;;;;4.40;2.60;;;24.60;61.50;;;;;;5073423;28;20459;-65
2023/05/19 09:38:33;;;;;;;4.20;2.27;;;24.60;61.50;;;;;;5072616;28;20822;-65
2023/05/19 09:41:03;;;;;;;3.43;2.50;;;24.60;61.50;;;;;;5072556;28;20532;-67
2023/05/19 09:43:33;;;;;;;2.07;1.90;;;24.60;61.50;;;;;;5071824;28;20453;-65
2023/05/19 09:46:04;;;;;;;3.07;2.80;;;24.60;61.60;;;;;;5066831;28;20443;-65
2023/05/19 09:48:33;;;;;;;2.47;2.17;;;24.70;61.50;;;;;;5063262;28;20442;-66
2023/05/19 09:51:01;;;;;;;5.03;2.40;;;24.70;61.40;;;;;;5071917;28;20457;-65
2023/05/19 09:53:31;;;;;;;3.90;1.97;;;24.70;61.40;;;;;;5069432;28;20463;-66
2023/05/19 09:56:00;;;;;;;5.90;2.87;;;24.70;61.50;;;;;;5060669;28;20451;-66
2023/05/19 09:58:35;;;;;;;3.13;2.27;;;24.70;61.50;;;;;;5068337;28;20455;-65
2023/05/19 10:01:04;;;;;;;3.83;2.33;;;24.70;61.50;;;;;;5067194;28;20532;-65
2023/05/19 10:03:34;;;;;;;3.47;2.20;;;24.70;61.40;;;;;;5053438;28;20459;-65
2023/05/19 10:06:05;;;;;;;3.70;2.30;;;24.70;61.40;;;;;;5072290;28;20570;-66
2023/05/19 10:08:34;;;;;;;3.43;2.40;;;24.80;61.40;;;;;;5067039;28;20467;-65
2023/05/19 10:11:04;;;;;;;2.33;1.97;;;24.80;61.30;;;;;;5072634;28;20972;-65
2023/05/19 10:13:37;;;;;;;2.90;2.17;;;24.80;61.30;;;;;;5063775;28;20862;-65
2023/05/19 10:16:06;;;;;;;2.30;2.10;;;24.80;61.40;;;;;;5074034;28;20462;-65
2023/05/19 10:18:36;;;;;;;2.40;1.83;;;24.80;61.40;;;;;;5052360;28;20460;-66
2023/05/19 10:21:08;;;;;;;4.70;2.70;;;24.90;61.30;;;;;;5070638;28;20478;-65
2023/05/19 10:23:36;;;;;;;4.13;2.07;;;24.90;61.40;;;;;;5068230;28;20463;-65
2023/05/19 10:26:05;;;;;;;3.73;2.17;;;24.80;61.40;;;;;;5062140;28;20491;-65
2023/05/19 10:28:39;;;;;;;3.43;2.60;;;24.80;61.50;;;;;;5068473;28;20458;-64
2023/05/19 10:31:13;;;;;;;4.10;2.17;;;24.90;61.50;;;;;;5062642;28;20940;-65
2023/05/19 10:34:00;;;;;;;3.10;2.17;;;24.80;61.60;;;;;;5070119;28;20495;-65
2023/05/19 10:36:45;;;;;;;3.53;2.20;;;24.90;61.60;;;;;;5068245;28;20504;-65
2023/05/19 10:39:19;;;;;;;3.80;2.33;;;24.90;61.50;;;;;;5069845;28;20450;-65
2023/05/19 10:41:53;;;;;;;2.70;2.10;;;24.90;61.50;;;;;;5078502;28;20522;-65
2023/05/19 10:44:40;;;;;;;4.07;2.23;;;24.90;61.50;;;;;;5070351;28;20454;-66
2023/05/19 10:47:10;;;;;;;3.23;2.07;;;25.00;61.40;;;;;;5073040;28;20936;-66
2023/05/19 10:49:40;;;;;;;3.90;1.93;;;24.90;61.20;;;;;;5070767;28;20460;-66
2023/05/19 10:52:21;;;;;;;3.33;2.23;;;25.00;61.00;;;;;;5071004;28;20510;-66
2023/05/19 10:54:50;;;;;;;2.20;2.00;;;24.90;61.00;;;;;;5087458;28;20459;-67
2023/05/19 10:57:24;;;;;;;3.10;2.50;;;24.90;60.90;;;;;;5080123;28;20899;-69
2023/05/19 10:59:56;;;;;;;2.67;2.10;;;24.90;61.00;;;;;;5091729;28;20510;-66
2023/05/19 11:02:41;;;;;;;2.50;2.30;;;24.80;61.00;;;;;;5086917;28;20466;-67
2023/05/19 11:05:13;;;;;;;2.33;2.00;;;24.80;60.90;;;;;;5066589;28;20451;-68
2023/05/19 11:07:43;;;;;;;3.63;2.30;;;24.80;60.90;;;;;;5058451;28;20467;-66
2023/05/19 11:10:12;;;;;;;2.00;1.90;;;24.80;60.80;;;;;;5058213;28;20449;-66
2023/05/19 11:12:42;;;;;;;2.50;2.30;;;24.80;60.80;;;;;;5062368;28;20459;-66
2023/05/19 11:15:15;;;;;;;3.63;2.67;;;24.80;60.70;;;;;;5065411;28;20471;-66
2023/05/19 11:17:48;;;;;;;2.50;2.23;;;24.80;60.70;;;;;;5083814;28;21216;-66
2023/05/19 11:20:24;;;;;;;3.47;2.73;;;24.80;60.70;;;;;;5081666;28;20448;-67
2023/05/19 11:23:06;;;;;;;3.53;2.33;;;24.70;60.70;;;;;;5078277;28;20464;-66
2023/05/19 11:25:45;;;;;;;3.30;2.30;;;24.70;60.80;;;;;;5066391;28;20491;-67
2023/05/19 11:28:17;;;;;;;4.83;2.77;;;24.70;60.90;;;;;;5077973;28;20450;-66
2023/05/19 11:30:50;;;;;;;2.80;2.60;;;24.70;60.80;;;;;;5071137;28;20443;-66
2023/05/19 11:33:20;;;;;;;4.10;2.70;;;24.70;60.90;;;;;;5066423;28;20467;-66
2023/05/19 11:35:50;;;;;;;2.90;2.60;;;24.70;60.80;;;;;;5066771;28;20463;-67
2023/05/19 11:38:19;;;;;;;4.00;2.90;;;24.70;60.80;;;;;;5062340;28;21438;-67
2023/05/19 11:40:49;;;;;;;4.83;2.73;;;24.70;60.80;;;;;;5045463;28;20467;-66
2023/05/19 11:43:17;;;;;;;5.57;2.73;;;24.70;60.80;;;;;;5068126;28;21020;-66
2023/05/19 11:45:47;;;;;;;3.83;3.10;;;24.70;60.80;;;;;;5070218;28;20960;-67
2023/05/19 11:48:16;;;;;;;3.03;2.47;;;24.70;60.90;;;;;;5078379;28;20519;-66
2023/05/19 11:50:45;;;;;;;7.47;2.90;;;24.70;60.80;;;;;;5072950;28;20462;-66
2023/05/19 11:53:15;;;;;;;3.80;2.60;;;24.70;60.90;;;;;;5068286;28;20455;-66
2023/05/19 11:55:45;;;;;;;4.97;3.17;;;24.70;60.90;;;;;;5069843;28;20526;-66
2023/05/19 11:58:15;;;;;;;3.40;3.10;;;24.70;60.90;;;;;;5076621;28;20535;-66
2023/05/19 12:00:44;;;;;;;4.30;3.30;;;24.70;60.90;;;;;;5067716;28;20487;-66
2023/05/19 12:03:15;;;;;;;4.73;3.00;;;24.70;61.00;;;;;;5071776;28;20455;-67
2023/05/19 12:05:45;;;;;;;6.17;5.00;;;24.60;60.90;;;;;;5058184;28;20970;-66
2023/05/19 12:08:17;;;;;;;8.43;4.93;;;24.60;61.00;;;;;;5065198;28;20453;-66
2023/05/19 12:10:49;;;;;;;5.27;4.50;;;24.60;61.10;;;;;;5064105;28;20461;-65
2023/05/19 12:13:17;;;;;;;5.97;4.23;;;24.60;61.30;;;;;;5069370;28;20445;-66
2023/05/19 12:15:45;;;;;;;7.33;4.50;;;24.60;61.40;;;;;;5062148;28;20517;-66
2023/05/19 12:18:15;;;;;;;10.73;5.10;;;24.70;61.50;;;;;;5060736;28;20457;-66
2023/05/19 12:20:44;;;;;;;4.67;3.83;;;24.70;61.60;;;;;;5053829;28;21311;-67
2023/05/19 12:23:12;;;;;;;6.70;3.90;;;24.70;61.70;;;;;;5067704;28;20529;-67
2023/05/19 12:25:40;;;;;;;4.00;3.67;;;24.70;61.70;;;;;;5051798;28;20703;-69
2023/05/19 12:28:09;;;;;;;3.60;3.30;;;24.70;61.80;;;;;;5069238;28;20462;-67
2023/05/19 12:30:37;;;;;;;8.47;4.10;;;24.70;61.70;;;;;;5060349;28;20458;-68
2023/05/19 12:33:06;;;;;;;5.53;4.00;;;24.70;61.70;;;;;;5067401;28;20475;-67
2023/05/19 12:35:38;;;;;;;6.30;5.03;;;24.80;61.80;;;;;;5074354;28;20946;-67
2023/05/19 12:38:06;;;;;;;5.53;4.03;;;24.80;61.80;;;;;;5074820;28;20960;-69
2023/05/19 12:40:35;;;;;;;7.25;3.80;;;24.80;61.80;;;;;;5070892;28;20933;-69
2023/05/19 12:43:08;;;;;;;11.63;7.47;;;24.80;61.90;;;;;;5066877;28;20214;-68
2023/05/19 12:45:37;;;;;;;11.40;8.40;;;24.80;61.40;;;;;;5070492;28;20508;-68
2023/05/19 12:48:11;;;;;;;12.23;8.80;;;24.80;61.20;;;;;;5055694;28;20455;-70
2023/05/19 12:50:41;;;;;;;12.47;8.70;;;24.80;61.40;;;;;;5069688;28;20567;-68
2023/05/19 12:53:10;;;;;;;11.63;9.30;;;24.80;61.40;;;;;;5053901;28;20475;-68
2023/05/19 12:55:41;;;;;;;10.83;8.50;;;24.80;61.50;;;;;;5070413;28;20457;-67
2023/05/19 12:58:10;;;;;;;15.43;8.27;;;24.80;61.60;;;;;;5068608;28;20453;-69
2023/05/19 13:00:43;;;;;;;14.13;7.77;;;24.80;61.70;;;;;;5076198;28;20822;-68
2023/05/19 13:03:16;;;;;;;14.13;8.20;;;24.80;61.80;;;;;;5075161;28;20466;-69